sensor_id;sensor_type;location;lat;lon;timestamp;P1;durP1;ratioP1;P2;durP2;ratioP2
40122;SDS011;25832;45.490;4.912;2024-03-07T00:02:04;6.05;;;3.40;;
40122;SDS011;25832;45.490;4.912;2024-03-07T00:04:29;7.85;;;2.70;;
40122;SDS011;25832;45.490;4.912;2024-03-07T00:06:55;6.05;;;3.00;;
40122;SDS011;25832;45.490;4.912;2024-03-07T00:09:21;6.25;;;2.85;;
40122;SDS011;25832;45.490;4.912;2024-03-07T00:11:49;7.85;;;3.28;;
40122;SDS011;25832;45.490;4.912;2024-03-07T00:14:17;6.53;;;3.22;;
40122;SDS011;25832;45.490;4.912;2024-03-07T00:16:44;4.85;;;2.65;;
40122;SDS011;25832;45.490;4.912;2024-03-07T00:19:10;4.95;;;2.58;;
40122;SDS011;25832;45.490;4.912;2024-03-07T00:21:35;5.78;;;2.60;;
40122;SDS011;25832;45.490;4.912;2024-03-07T00:24:01;8.93;;;3.03;;
40122;SDS011;25832;45.490;4.912;2024-03-07T00:26:30;5.13;;;2.22;;
40122;SDS011;25832;45.490;4.912;2024-03-07T00:28:55;4.65;;;2.97;;
40122;SDS011;25832;45.490;4.912;2024-03-07T00:31:21;8.60;;;3.17;;
40122;SDS011;25832;45.490;4.912;2024-03-07T00:33:46;6.68;;;3.00;;
40122;SDS011;25832;45.490;4.912;2024-03-07T00:36:12;7.40;;;3.75;;
40122;SDS011;25832;45.490;4.912;2024-03-07T00:38:38;8.93;;;3.38;;
40122;SDS011;25832;45.490;4.912;2024-03-07T00:41:03;4.60;;;2.50;;
40122;SDS011;25832;45.490;4.912;2024-03-07T00:43:29;8.43;;;2.58;;
40122;SDS011;25832;45.490;4.912;2024-03-07T00:45:55;3.45;;;1.85;;
40122;SDS011;25832;45.490;4.912;2024-03-07T00:48:21;3.97;;;2.17;;
40122;SDS011;25832;45.490;4.912;2024-03-07T00:50:49;5.90;;;3.35;;
40122;SDS011;25832;45.490;4.912;2024-03-07T00:53:15;4.78;;;2.70;;
40122;SDS011;25832;45.490;4.912;2024-03-07T00:55:41;4.38;;;2.95;;
40122;SDS011;25832;45.490;4.912;2024-03-07T00:58:06;7.78;;;2.88;;
40122;SDS011;25832;45.490;4.912;2024-03-07T01:00:32;8.57;;;3.38;;
40122;SDS011;25832;45.490;4.912;2024-03-07T01:02:57;7.25;;;2.80;;
40122;SDS011;25832;45.490;4.912;2024-03-07T01:05:23;4.82;;;3.17;;
40122;SDS011;25832;45.490;4.912;2024-03-07T01:07:49;5.10;;;2.53;;
40122;SDS011;25832;45.490;4.912;2024-03-07T01:10:15;5.05;;;3.42;;
40122;SDS011;25832;45.490;4.912;2024-03-07T01:12:41;9.85;;;3.05;;
40122;SDS011;25832;45.490;4.912;2024-03-07T01:15:08;5.55;;;2.45;;
40122;SDS011;25832;45.490;4.912;2024-03-07T01:17:35;4.22;;;2.40;;
40122;SDS011;25832;45.490;4.912;2024-03-07T01:20:01;3.95;;;2.15;;
40122;SDS011;25832;45.490;4.912;2024-03-07T01:22:27;4.20;;;2.42;;
40122;SDS011;25832;45.490;4.912;2024-03-07T01:24:53;5.82;;;2.80;;
40122;SDS011;25832;45.490;4.912;2024-03-07T01:27:19;7.00;;;3.47;;
40122;SDS011;25832;45.490;4.912;2024-03-07T01:29:45;5.30;;;2.88;;
40122;SDS011;25832;45.490;4.912;2024-03-07T01:32:11;6.28;;;3.47;;
40122;SDS011;25832;45.490;4.912;2024-03-07T01:34:36;3.80;;;2.22;;
40122;SDS011;25832;45.490;4.912;2024-03-07T01:37:02;5.55;;;2.15;;
40122;SDS011;25832;45.490;4.912;2024-03-07T01:39:28;5.68;;;2.60;;
40122;SDS011;25832;45.490;4.912;2024-03-07T01:41:53;4.80;;;2.50;;
40122;SDS011;25832;45.490;4.912;2024-03-07T01:44:19;3.92;;;2.17;;
40122;SDS011;25832;45.490;4.912;2024-03-07T01:46:45;10.07;;;2.13;;
40122;SDS011;25832;45.490;4.912;2024-03-07T01:49:10;5.72;;;2.15;;
40122;SDS011;25832;45.490;4.912;2024-03-07T01:51:37;3.38;;;1.88;;
40122;SDS011;25832;45.490;4.912;2024-03-07T01:54:04;5.45;;;1.90;;
40122;SDS011;25832;45.490;4.912;2024-03-07T01:56:33;4.38;;;2.67;;
40122;SDS011;25832;45.490;4.912;2024-03-07T01:59:00;5.93;;;2.28;;
40122;SDS011;25832;45.490;4.912;2024-03-07T02:01:29;10.45;;;2.40;;
40122;SDS011;25832;45.490;4.912;2024-03-07T02:03:55;4.97;;;2.10;;
40122;SDS011;25832;45.490;4.912;2024-03-07T02:06:20;7.38;;;2.33;;
40122;SDS011;25832;45.490;4.912;2024-03-07T02:08:46;3.38;;;2.67;;
40122;SDS011;25832;45.490;4.912;2024-03-07T02:11:12;4.60;;;2.28;;
40122;SDS011;25832;45.490;4.912;2024-03-07T02:13:38;5.75;;;2.53;;
40122;SDS011;25832;45.490;4.912;2024-03-07T02:16:04;5.85;;;2.67;;
40122;SDS011;25832;45.490;4.912;2024-03-07T02:18:29;7.10;;;2.25;;
40122;SDS011;25832;45.490;4.912;2024-03-07T02:20:55;4.82;;;2.78;;
40122;SDS011;25832;45.490;4.912;2024-03-07T02:23:21;4.45;;;2.17;;
40122;SDS011;25832;45.490;4.912;2024-03-07T02:25:46;5.07;;;2.85;;
40122;SDS011;25832;45.490;4.912;2024-03-07T02:28:12;5.60;;;2.33;;
40122;SDS011;25832;45.490;4.912;2024-03-07T02:30:38;4.47;;;1.88;;
40122;SDS011;25832;45.490;4.912;2024-03-07T02:33:03;3.25;;;2.15;;
40122;SDS011;25832;45.490;4.912;2024-03-07T02:35:33;4.53;;;1.90;;
40122;SDS011;25832;45.490;4.912;2024-03-07T02:38:05;3.22;;;1.63;;
40122;SDS011;25832;45.490;4.912;2024-03-07T02:40:30;7.63;;;1.90;;
40122;SDS011;25832;45.490;4.912;2024-03-07T02:42:57;4.10;;;1.55;;
40122;SDS011;25832;45.490;4.912;2024-03-07T02:45:23;3.90;;;1.75;;
40122;SDS011;25832;45.490;4.912;2024-03-07T02:47:49;3.35;;;1.85;;
40122;SDS011;25832;45.490;4.912;2024-03-07T02:50:14;3.40;;;1.90;;
40122;SDS011;25832;45.490;4.912;2024-03-07T02:52:40;5.70;;;1.90;;
40122;SDS011;25832;45.490;4.912;2024-03-07T02:55:06;5.10;;;1.88;;
40122;SDS011;25832;45.490;4.912;2024-03-07T02:57:35;6.03;;;2.22;;
40122;SDS011;25832;45.490;4.912;2024-03-07T03:00:01;5.57;;;2.95;;
40122;SDS011;25832;45.490;4.912;2024-03-07T03:02:38;3.90;;;1.98;;
40122;SDS011;25832;45.490;4.912;2024-03-07T03:05:04;4.78;;;2.45;;
40122;SDS011;25832;45.490;4.912;2024-03-07T03:07:34;8.55;;;2.42;;
40122;SDS011;25832;45.490;4.912;2024-03-07T03:10:00;5.30;;;2.75;;
40122;SDS011;25832;45.490;4.912;2024-03-07T03:12:26;7.70;;;2.20;;
40122;SDS011;25832;45.490;4.912;2024-03-07T03:14:52;5.03;;;2.50;;
40122;SDS011;25832;45.490;4.912;2024-03-07T03:17:18;3.97;;;1.75;;
40122;SDS011;25832;45.490;4.912;2024-03-07T03:19:44;7.72;;;2.80;;
40122;SDS011;25832;45.490;4.912;2024-03-07T03:22:10;6.28;;;2.75;;
40122;SDS011;25832;45.490;4.912;2024-03-07T03:24:36;3.95;;;2.28;;
40122;SDS011;25832;45.490;4.912;2024-03-07T03:27:02;11.90;;;2.50;;
40122;SDS011;25832;45.490;4.912;2024-03-07T03:29:27;7.22;;;2.33;;
40122;SDS011;25832;45.490;4.912;2024-03-07T03:31:54;8.15;;;2.80;;
40122;SDS011;25832;45.490;4.912;2024-03-07T03:34:20;8.45;;;2.75;;
40122;SDS011;25832;45.490;4.912;2024-03-07T03:36:46;5.47;;;3.38;;
40122;SDS011;25832;45.490;4.912;2024-03-07T03:39:12;6.57;;;3.20;;
40122;SDS011;25832;45.490;4.912;2024-03-07T03:41:38;4.82;;;3.05;;
40122;SDS011;25832;45.490;4.912;2024-03-07T03:44:04;11.27;;;2.95;;
40122;SDS011;25832;45.490;4.912;2024-03-07T03:46:31;8.23;;;3.88;;
40122;SDS011;25832;45.490;4.912;2024-03-07T03:48:56;13.45;;;3.22;;
40122;SDS011;25832;45.490;4.912;2024-03-07T03:51:23;6.78;;;3.78;;
40122;SDS011;25832;45.490;4.912;2024-03-07T03:53:50;6.68;;;3.55;;
40122;SDS011;25832;45.490;4.912;2024-03-07T03:56:16;7.88;;;2.63;;
40122;SDS011;25832;45.490;4.912;2024-03-07T03:58:42;10.73;;;3.35;;
40122;SDS011;25832;45.490;4.912;2024-03-07T04:01:08;10.80;;;3.45;;
40122;SDS011;25832;45.490;4.912;2024-03-07T04:03:38;6.20;;;2.70;;
40122;SDS011;25832;45.490;4.912;2024-03-07T04:06:04;7.75;;;3.25;;
40122;SDS011;25832;45.490;4.912;2024-03-07T04:08:29;4.93;;;3.05;;
40122;SDS011;25832;45.490;4.912;2024-03-07T04:10:55;9.10;;;3.28;;
40122;SDS011;25832;45.490;4.912;2024-03-07T04:13:21;8.30;;;2.67;;
40122;SDS011;25832;45.490;4.912;2024-03-07T04:15:51;6.70;;;3.58;;
40122;SDS011;25832;45.490;4.912;2024-03-07T04:18:16;9.07;;;3.38;;
40122;SDS011;25832;45.490;4.912;2024-03-07T04:20:42;8.43;;;3.13;;
40122;SDS011;25832;45.490;4.912;2024-03-07T04:23:09;6.10;;;3.80;;
40122;SDS011;25832;45.490;4.912;2024-03-07T04:25:34;5.82;;;3.75;;
40122;SDS011;25832;45.490;4.912;2024-03-07T04:28:00;7.45;;;3.42;;
40122;SDS011;25832;45.490;4.912;2024-03-07T04:30:26;5.85;;;2.53;;
40122;SDS011;25832;45.490;4.912;2024-03-07T04:32:51;10.85;;;3.13;;
40122;SDS011;25832;45.490;4.912;2024-03-07T04:35:17;7.30;;;3.05;;
40122;SDS011;25832;45.490;4.912;2024-03-07T04:37:43;7.85;;;2.58;;
40122;SDS011;25832;45.490;4.912;2024-03-07T04:40:10;9.60;;;3.60;;
40122;SDS011;25832;45.490;4.912;2024-03-07T04:42:45;8.18;;;3.92;;
40122;SDS011;25832;45.490;4.912;2024-03-07T04:47:41;3.50;;;2.70;;
40122;SDS011;25832;45.490;4.912;2024-03-07T04:50:10;7.67;;;4.23;;
40122;SDS011;25832;45.490;4.912;2024-03-07T04:52:39;9.20;;;4.30;;
40122;SDS011;25832;45.490;4.912;2024-03-07T04:55:05;15.30;;;4.93;;
40122;SDS011;25832;45.490;4.912;2024-03-07T04:57:38;7.28;;;4.40;;
40122;SDS011;25832;45.490;4.912;2024-03-07T05:00:08;13.43;;;4.47;;
40122;SDS011;25832;45.490;4.912;2024-03-07T05:02:42;6.65;;;3.65;;
40122;SDS011;25832;45.490;4.912;2024-03-07T05:05:08;10.98;;;3.72;;
40122;SDS011;25832;45.490;4.912;2024-03-07T05:07:34;7.70;;;4.28;;
40122;SDS011;25832;45.490;4.912;2024-03-07T05:10:06;7.70;;;3.70;;
40122;SDS011;25832;45.490;4.912;2024-03-07T05:12:32;4.88;;;1.98;;
40122;SDS011;25832;45.490;4.912;2024-03-07T05:14:58;6.15;;;3.97;;
40122;SDS011;25832;45.490;4.912;2024-03-07T05:17:24;4.57;;;2.75;;
40122;SDS011;25832;45.490;4.912;2024-03-07T05:19:50;8.00;;;4.25;;
40122;SDS011;25832;45.490;4.912;2024-03-07T05:22:15;6.35;;;3.67;;
40122;SDS011;25832;45.490;4.912;2024-03-07T05:24:43;8.32;;;4.18;;
40122;SDS011;25832;45.490;4.912;2024-03-07T05:27:08;7.68;;;4.80;;
40122;SDS011;25832;45.490;4.912;2024-03-07T05:29:38;12.80;;;4.43;;
40122;SDS011;25832;45.490;4.912;2024-03-07T05:32:22;9.75;;;5.13;;
40122;SDS011;25832;45.490;4.912;2024-03-07T05:34:50;11.65;;;5.07;;
40122;SDS011;25832;45.490;4.912;2024-03-07T05:37:18;10.40;;;3.92;;
40122;SDS011;25832;45.490;4.912;2024-03-07T05:39:47;8.02;;;3.95;;
40122;SDS011;25832;45.490;4.912;2024-03-07T05:42:13;9.32;;;4.32;;
40122;SDS011;25832;45.490;4.912;2024-03-07T05:44:40;9.45;;;5.97;;
40122;SDS011;25832;45.490;4.912;2024-03-07T05:47:06;13.27;;;6.15;;
40122;SDS011;25832;45.490;4.912;2024-03-07T05:49:32;7.03;;;3.78;;
40122;SDS011;25832;45.490;4.912;2024-03-07T05:51:58;10.20;;;4.70;;
40122;SDS011;25832;45.490;4.912;2024-03-07T05:54:24;8.30;;;4.78;;
40122;SDS011;25832;45.490;4.912;2024-03-07T05:56:49;7.18;;;4.25;;
40122;SDS011;25832;45.490;4.912;2024-03-07T05:59:15;7.55;;;4.20;;
40122;SDS011;25832;45.490;4.912;2024-03-07T06:01:42;11.35;;;4.03;;
40122;SDS011;25832;45.490;4.912;2024-03-07T06:04:09;11.55;;;4.72;;
40122;SDS011;25832;45.490;4.912;2024-03-07T06:06:35;6.95;;;4.20;;
40122;SDS011;25832;45.490;4.912;2024-03-07T06:09:06;9.88;;;4.05;;
40122;SDS011;25832;45.490;4.912;2024-03-07T06:11:34;9.80;;;3.75;;
40122;SDS011;25832;45.490;4.912;2024-03-07T06:14:04;7.43;;;4.13;;
40122;SDS011;25832;45.490;4.912;2024-03-07T06:16:35;7.75;;;4.05;;
40122;SDS011;25832;45.490;4.912;2024-03-07T06:19:02;8.52;;;4.07;;
40122;SDS011;25832;45.490;4.912;2024-03-07T06:21:29;6.10;;;3.60;;
40122;SDS011;25832;45.490;4.912;2024-03-07T06:23:58;8.27;;;4.53;;
40122;SDS011;25832;45.490;4.912;2024-03-07T06:26:30;5.20;;;3.93;;
40122;SDS011;25832;45.490;4.912;2024-03-07T06:29:06;5.03;;;2.70;;
40122;SDS011;25832;45.490;4.912;2024-03-07T06:31:33;9.43;;;4.43;;
40122;SDS011;25832;45.490;4.912;2024-03-07T06:33:59;9.52;;;4.78;;
40122;SDS011;25832;45.490;4.912;2024-03-07T06:36:25;12.77;;;5.10;;
40122;SDS011;25832;45.490;4.912;2024-03-07T06:38:51;12.30;;;5.40;;
40122;SDS011;25832;45.490;4.912;2024-03-07T06:41:16;16.05;;;6.20;;
40122;SDS011;25832;45.490;4.912;2024-03-07T06:43:45;10.85;;;5.80;;
40122;SDS011;25832;45.490;4.912;2024-03-07T06:46:11;10.38;;;4.60;;
40122;SDS011;25832;45.490;4.912;2024-03-07T06:48:40;14.20;;;5.63;;
40122;SDS011;25832;45.490;4.912;2024-03-07T06:51:06;9.48;;;5.03;;
40122;SDS011;25832;45.490;4.912;2024-03-07T06:53:32;9.18;;;5.10;;
40122;SDS011;25832;45.490;4.912;2024-03-07T06:55:58;7.47;;;5.00;;
40122;SDS011;25832;45.490;4.912;2024-03-07T06:58:24;11.50;;;5.10;;
40122;SDS011;25832;45.490;4.912;2024-03-07T07:00:51;10.27;;;5.35;;
40122;SDS011;25832;45.490;4.912;2024-03-07T07:03:19;11.75;;;5.68;;
40122;SDS011;25832;45.490;4.912;2024-03-07T07:05:49;17.65;;;5.65;;
40122;SDS011;25832;45.490;4.912;2024-03-07T07:08:15;11.35;;;5.47;;
40122;SDS011;25832;45.490;4.912;2024-03-07T07:10:41;9.63;;;5.28;;
40122;SDS011;25832;45.490;4.912;2024-03-07T07:13:07;8.02;;;5.28;;
40122;SDS011;25832;45.490;4.912;2024-03-07T07:15:33;10.50;;;5.05;;
40122;SDS011;25832;45.490;4.912;2024-03-07T07:17:59;12.93;;;6.10;;
40122;SDS011;25832;45.490;4.912;2024-03-07T07:20:27;8.65;;;5.28;;
40122;SDS011;25832;45.490;4.912;2024-03-07T07:22:53;21.52;;;6.60;;
40122;SDS011;25832;45.490;4.912;2024-03-07T07:25:18;12.50;;;6.30;;
40122;SDS011;25832;45.490;4.912;2024-03-07T07:27:47;13.10;;;6.50;;
40122;SDS011;25832;45.490;4.912;2024-03-07T07:30:14;12.65;;;6.55;;
40122;SDS011;25832;45.490;4.912;2024-03-07T07:32:41;9.93;;;6.53;;
40122;SDS011;25832;45.490;4.912;2024-03-07T07:35:08;13.63;;;7.30;;
40122;SDS011;25832;45.490;4.912;2024-03-07T07:37:39;13.70;;;7.40;;
40122;SDS011;25832;45.490;4.912;2024-03-07T07:40:20;14.85;;;7.97;;
40122;SDS011;25832;45.490;4.912;2024-03-07T07:42:51;12.32;;;7.00;;
40122;SDS011;25832;45.490;4.912;2024-03-07T07:45:17;8.75;;;4.78;;
40122;SDS011;25832;45.490;4.912;2024-03-07T07:47:47;18.30;;;7.57;;
40122;SDS011;25832;45.490;4.912;2024-03-07T07:50:15;21.25;;;10.18;;
40122;SDS011;25832;45.490;4.912;2024-03-07T07:55:18;20.73;;;7.93;;
40122;SDS011;25832;45.490;4.912;2024-03-07T07:57:54;23.45;;;10.57;;
40122;SDS011;25832;45.490;4.912;2024-03-07T08:00:22;20.02;;;9.68;;
40122;SDS011;25832;45.490;4.912;2024-03-07T08:02:56;20.10;;;9.90;;
40122;SDS011;25832;45.490;4.912;2024-03-07T08:05:29;22.55;;;9.20;;
40122;SDS011;25832;45.490;4.912;2024-03-07T08:07:58;17.27;;;10.02;;
40122;SDS011;25832;45.490;4.912;2024-03-07T08:10:26;21.63;;;10.05;;
40122;SDS011;25832;45.490;4.912;2024-03-07T08:12:56;14.60;;;9.00;;
40122;SDS011;25832;45.490;4.912;2024-03-07T08:15:23;16.33;;;7.95;;
40122;SDS011;25832;45.490;4.912;2024-03-07T08:17:51;14.18;;;6.50;;
40122;SDS011;25832;45.490;4.912;2024-03-07T08:20:18;17.67;;;7.32;;
40122;SDS011;25832;45.490;4.912;2024-03-07T08:22:45;13.35;;;6.85;;
40122;SDS011;25832;45.490;4.912;2024-03-07T08:25:12;11.02;;;5.85;;
40122;SDS011;25832;45.490;4.912;2024-03-07T08:27:39;8.77;;;5.72;;
40122;SDS011;25832;45.490;4.912;2024-03-07T08:30:08;12.00;;;6.32;;
40122;SDS011;25832;45.490;4.912;2024-03-07T08:32:39;12.85;;;6.28;;
40122;SDS011;25832;45.490;4.912;2024-03-07T08:35:06;8.63;;;4.75;;
40122;SDS011;25832;45.490;4.912;2024-03-07T08:37:37;10.05;;;5.20;;
40122;SDS011;25832;45.490;4.912;2024-03-07T08:40:03;9.05;;;5.50;;
40122;SDS011;25832;45.490;4.912;2024-03-07T08:42:31;13.23;;;6.00;;
40122;SDS011;25832;45.490;4.912;2024-03-07T08:44:59;8.80;;;5.43;;
40122;SDS011;25832;45.490;4.912;2024-03-07T08:47:30;14.95;;;6.40;;
40122;SDS011;25832;45.490;4.912;2024-03-07T08:49:59;8.15;;;4.57;;
40122;SDS011;25832;45.490;4.912;2024-03-07T08:52:25;9.40;;;5.30;;
40122;SDS011;25832;45.490;4.912;2024-03-07T08:54:52;10.60;;;5.43;;
40122;SDS011;25832;45.490;4.912;2024-03-07T08:57:19;17.40;;;5.88;;
40122;SDS011;25832;45.490;4.912;2024-03-07T08:59:44;8.15;;;4.93;;
40122;SDS011;25832;45.490;4.912;2024-03-07T09:02:11;9.30;;;5.38;;
40122;SDS011;25832;45.490;4.912;2024-03-07T09:04:39;9.98;;;4.60;;
40122;SDS011;25832;45.490;4.912;2024-03-07T09:07:05;14.05;;;6.22;;
40122;SDS011;25832;45.490;4.912;2024-03-07T09:09:32;7.20;;;4.70;;
40122;SDS011;25832;45.490;4.912;2024-03-07T09:11:58;9.65;;;5.05;;
40122;SDS011;25832;45.490;4.912;2024-03-07T09:14:26;9.52;;;5.10;;
40122;SDS011;25832;45.490;4.912;2024-03-07T09:16:52;13.15;;;6.28;;
40122;SDS011;25832;45.490;4.912;2024-03-07T09:19:18;10.65;;;5.00;;
40122;SDS011;25832;45.490;4.912;2024-03-07T09:21:48;15.18;;;6.00;;
40122;SDS011;25832;45.490;4.912;2024-03-07T09:24:15;7.55;;;4.40;;
40122;SDS011;25832;45.490;4.912;2024-03-07T09:26:41;11.25;;;4.18;;
40122;SDS011;25832;45.490;4.912;2024-03-07T09:29:06;6.65;;;4.00;;
40122;SDS011;25832;45.490;4.912;2024-03-07T09:31:32;6.57;;;4.55;;
40122;SDS011;25832;45.490;4.912;2024-03-07T09:33:59;6.95;;;4.45;;
40122;SDS011;25832;45.490;4.912;2024-03-07T09:36:25;10.57;;;4.78;;
40122;SDS011;25832;45.490;4.912;2024-03-07T09:38:51;4.93;;;3.30;;
40122;SDS011;25832;45.490;4.912;2024-03-07T09:41:16;6.20;;;3.13;;
40122;SDS011;25832;45.490;4.912;2024-03-07T09:43:47;8.88;;;3.60;;
40122;SDS011;25832;45.490;4.912;2024-03-07T09:46:15;5.47;;;2.78;;
40122;SDS011;25832;45.490;4.912;2024-03-07T09:48:41;8.20;;;2.90;;
40122;SDS011;25832;45.490;4.912;2024-03-07T09:51:07;6.45;;;2.67;;
40122;SDS011;25832;45.490;4.912;2024-03-07T09:53:36;6.13;;;3.03;;
40122;SDS011;25832;45.490;4.912;2024-03-07T09:56:03;7.75;;;3.83;;
40122;SDS011;25832;45.490;4.912;2024-03-07T09:58:31;7.32;;;2.75;;
40122;SDS011;25832;45.490;4.912;2024-03-07T10:00:58;6.57;;;3.58;;
40122;SDS011;25832;45.490;4.912;2024-03-07T10:03:29;5.13;;;2.92;;
40122;SDS011;25832;45.490;4.912;2024-03-07T10:05:55;8.57;;;3.67;;
40122;SDS011;25832;45.490;4.912;2024-03-07T10:08:21;6.32;;;3.20;;
40122;SDS011;25832;45.490;4.912;2024-03-07T10:10:49;8.65;;;3.75;;
40122;SDS011;25832;45.490;4.912;2024-03-07T10:13:16;6.05;;;3.40;;
40122;SDS011;25832;45.490;4.912;2024-03-07T10:15:43;5.00;;;3.05;;
40122;SDS011;25832;45.490;4.912;2024-03-07T10:18:09;8.65;;;3.42;;
40122;SDS011;25832;45.490;4.912;2024-03-07T10:20:35;5.55;;;3.33;;
40122;SDS011;25832;45.490;4.912;2024-03-07T10:23:03;5.22;;;3.25;;
40122;SDS011;25832;45.490;4.912;2024-03-07T10:25:28;8.00;;;3.70;;
40122;SDS011;25832;45.490;4.912;2024-03-07T10:27:54;7.43;;;3.72;;
40122;SDS011;25832;45.490;4.912;2024-03-07T10:30:20;6.18;;;3.38;;
40122;SDS011;25832;45.490;4.912;2024-03-07T10:32:46;6.68;;;3.85;;
40122;SDS011;25832;45.490;4.912;2024-03-07T10:35:13;5.75;;;3.53;;
40122;SDS011;25832;45.490;4.912;2024-03-07T10:37:40;6.47;;;4.30;;
40122;SDS011;25832;45.490;4.912;2024-03-07T10:40:06;5.18;;;3.25;;
40122;SDS011;25832;45.490;4.912;2024-03-07T10:42:44;6.55;;;3.83;;
40122;SDS011;25832;45.490;4.912;2024-03-07T10:45:16;6.28;;;3.42;;
40122;SDS011;25832;45.490;4.912;2024-03-07T10:47:43;5.32;;;3.10;;
40122;SDS011;25832;45.490;4.912;2024-03-07T10:50:17;8.15;;;3.63;;
40122;SDS011;25832;45.490;4.912;2024-03-07T10:52:54;7.15;;;3.65;;
40122;SDS011;25832;45.490;4.912;2024-03-07T10:58:51;4.75;;;3.22;;
40122;SDS011;25832;45.490;4.912;2024-03-07T11:01:10;5.97;;;3.88;;
40122;SDS011;25832;45.490;4.912;2024-03-07T11:03:39;6.05;;;3.63;;
40122;SDS011;25832;45.490;4.912;2024-03-07T11:06:06;4.03;;;2.60;;
40122;SDS011;25832;45.490;4.912;2024-03-07T11:08:36;6.33;;;3.43;;
40122;SDS011;25832;45.490;4.912;2024-03-07T11:11:02;5.90;;;3.70;;
40122;SDS011;25832;45.490;4.912;2024-03-07T11:13:29;9.75;;;3.30;;
40122;SDS011;25832;45.490;4.912;2024-03-07T11:15:55;6.35;;;3.53;;
40122;SDS011;25832;45.490;4.912;2024-03-07T11:18:25;44.90;;;22.13;;
40122;SDS011;25832;45.490;4.912;2024-03-07T11:20:51;9.98;;;6.32;;
40122;SDS011;25832;45.490;4.912;2024-03-07T11:23:31;9.70;;;5.45;;
40122;SDS011;25832;45.490;4.912;2024-03-07T11:26:09;8.43;;;4.18;;
40122;SDS011;25832;45.490;4.912;2024-03-07T11:28:39;5.32;;;3.45;;
40122;SDS011;25832;45.490;4.912;2024-03-07T11:31:13;9.45;;;3.80;;
40122;SDS011;25832;45.490;4.912;2024-03-07T11:33:40;12.95;;;3.45;;
40122;SDS011;25832;45.490;4.912;2024-03-07T11:36:10;6.45;;;3.50;;
40122;SDS011;25832;45.490;4.912;2024-03-07T11:38:47;5.53;;;2.78;;
40122;SDS011;25832;45.490;4.912;2024-03-07T11:41:13;5.63;;;2.60;;
40122;SDS011;25832;45.490;4.912;2024-03-07T11:43:42;3.78;;;2.63;;
40122;SDS011;25832;45.490;4.912;2024-03-07T11:46:08;7.93;;;3.20;;
40122;SDS011;25832;45.490;4.912;2024-03-07T11:48:39;6.93;;;3.40;;
40122;SDS011;25832;45.490;4.912;2024-03-07T11:51:12;6.90;;;3.38;;
40122;SDS011;25832;45.490;4.912;2024-03-07T11:53:38;18.48;;;3.78;;
40122;SDS011;25832;45.490;4.912;2024-03-07T11:56:05;5.88;;;2.67;;
40122;SDS011;25832;45.490;4.912;2024-03-07T11:58:41;5.18;;;3.20;;
40122;SDS011;25832;45.490;4.912;2024-03-07T12:01:09;8.13;;;3.38;;
40122;SDS011;25832;45.490;4.912;2024-03-07T12:03:35;5.43;;;2.67;;
40122;SDS011;25832;45.490;4.912;2024-03-07T12:06:02;4.78;;;2.80;;
40122;SDS011;25832;45.490;4.912;2024-03-07T12:08:28;4.00;;;2.80;;
40122;SDS011;25832;45.490;4.912;2024-03-07T12:10:54;7.95;;;3.90;;
40122;SDS011;25832;45.490;4.912;2024-03-07T12:13:21;5.40;;;3.25;;
40122;SDS011;25832;45.490;4.912;2024-03-07T12:15:49;6.05;;;3.35;;
40122;SDS011;25832;45.490;4.912;2024-03-07T12:18:20;3.22;;;2.67;;
40122;SDS011;25832;45.490;4.912;2024-03-07T12:20:47;4.85;;;2.63;;
40122;SDS011;25832;45.490;4.912;2024-03-07T12:23:19;5.65;;;2.72;;
40122;SDS011;25832;45.490;4.912;2024-03-07T12:25:47;5.47;;;2.90;;
40122;SDS011;25832;45.490;4.912;2024-03-07T12:28:13;6.22;;;3.25;;
40122;SDS011;25832;45.490;4.912;2024-03-07T12:33:11;3.97;;;2.28;;
40122;SDS011;25832;45.490;4.912;2024-03-07T12:35:39;7.03;;;2.63;;
40122;SDS011;25832;45.490;4.912;2024-03-07T12:38:09;3.97;;;2.08;;
40122;SDS011;25832;45.490;4.912;2024-03-07T12:40:36;8.70;;;2.95;;
40122;SDS011;25832;45.490;4.912;2024-03-07T12:43:03;6.20;;;2.78;;
40122;SDS011;25832;45.490;4.912;2024-03-07T12:45:47;5.55;;;2.75;;
40122;SDS011;25832;45.490;4.912;2024-03-07T12:48:14;3.50;;;2.80;;
40122;SDS011;25832;45.490;4.912;2024-03-07T12:50:41;4.00;;;2.33;;
40122;SDS011;25832;45.490;4.912;2024-03-07T12:53:10;4.43;;;2.17;;
40122;SDS011;25832;45.490;4.912;2024-03-07T12:55:38;3.40;;;2.28;;
40122;SDS011;25832;45.490;4.912;2024-03-07T12:58:07;3.83;;;2.10;;
40122;SDS011;25832;45.490;4.912;2024-03-07T13:00:34;4.20;;;2.10;;
40122;SDS011;25832;45.490;4.912;2024-03-07T13:03:02;3.72;;;2.20;;
40122;SDS011;25832;45.490;4.912;2024-03-07T13:05:28;5.03;;;2.17;;
40122;SDS011;25832;45.490;4.912;2024-03-07T13:07:53;3.95;;;2.25;;
40122;SDS011;25832;45.490;4.912;2024-03-07T13:10:19;5.20;;;2.42;;
40122;SDS011;25832;45.490;4.912;2024-03-07T13:12:45;3.83;;;2.28;;
40122;SDS011;25832;45.490;4.912;2024-03-07T13:15:14;2.75;;;2.00;;
40122;SDS011;25832;45.490;4.912;2024-03-07T13:17:43;7.15;;;2.30;;
40122;SDS011;25832;45.490;4.912;2024-03-07T13:20:10;3.63;;;1.98;;
40122;SDS011;25832;45.490;4.912;2024-03-07T13:22:43;5.45;;;2.08;;
40122;SDS011;25832;45.490;4.912;2024-03-07T13:25:16;3.88;;;1.98;;
40122;SDS011;25832;45.490;4.912;2024-03-07T13:28:02;2.33;;;1.10;;
40122;SDS011;25832;45.490;4.912;2024-03-07T13:30:38;1.63;;;0.90;;
40122;SDS011;25832;45.490;4.912;2024-03-07T13:33:05;3.35;;;1.65;;
40122;SDS011;25832;45.490;4.912;2024-03-07T13:35:31;2.22;;;1.30;;
40122;SDS011;25832;45.490;4.912;2024-03-07T13:37:57;5.13;;;1.20;;
40122;SDS011;25832;45.490;4.912;2024-03-07T13:40:23;2.83;;;1.33;;
40122;SDS011;25832;45.490;4.912;2024-03-07T13:45:20;5.07;;;1.23;;
40122;SDS011;25832;45.490;4.912;2024-03-07T13:47:48;1.42;;;0.82;;
40122;SDS011;25832;45.490;4.912;2024-03-07T13:50:15;1.80;;;1.25;;
40122;SDS011;25832;45.490;4.912;2024-03-07T13:52:44;3.63;;;2.63;;
40122;SDS011;25832;45.490;4.912;2024-03-07T14:36:47;2.28;;;0.95;;
40122;SDS011;25832;45.490;4.912;2024-03-07T14:39:18;1.13;;;0.70;;
40122;SDS011;25832;45.490;4.912;2024-03-07T14:44:20;7.10;;;3.88;;
40122;SDS011;25832;45.490;4.912;2024-03-07T14:46:47;2.08;;;1.52;;
40122;SDS011;25832;45.490;4.912;2024-03-07T14:49:18;2.03;;;0.77;;
40122;SDS011;25832;45.490;4.912;2024-03-07T14:51:44;1.08;;;0.73;;
40122;SDS011;25832;45.490;4.912;2024-03-07T14:54:12;1.05;;;0.68;;
40122;SDS011;25832;45.490;4.912;2024-03-07T14:56:37;1.63;;;0.95;;
40122;SDS011;25832;45.490;4.912;2024-03-07T14:59:03;0.93;;;0.85;;
40122;SDS011;25832;45.490;4.912;2024-03-07T15:01:31;1.40;;;0.95;;
40122;SDS011;25832;45.490;4.912;2024-03-07T15:03:59;0.68;;;0.63;;
40122;SDS011;25832;45.490;4.912;2024-03-07T15:06:28;2.43;;;1.27;;
40122;SDS011;25832;45.490;4.912;2024-03-07T15:08:56;1.25;;;1.00;;
40122;SDS011;25832;45.490;4.912;2024-03-07T15:11:29;1.42;;;0.70;;
40122;SDS011;25832;45.490;4.912;2024-03-07T15:13:59;1.85;;;1.23;;
40122;SDS011;25832;45.490;4.912;2024-03-07T15:16:26;1.80;;;0.80;;
40122;SDS011;25832;45.490;4.912;2024-03-07T15:18:53;2.42;;;0.80;;
40122;SDS011;25832;45.490;4.912;2024-03-07T15:21:19;1.95;;;0.60;;
40122;SDS011;25832;45.490;4.912;2024-03-07T15:23:45;2.47;;;1.20;;
40122;SDS011;25832;45.490;4.912;2024-03-07T15:26:12;3.17;;;1.13;;
40122;SDS011;25832;45.490;4.912;2024-03-07T15:28:40;0.93;;;0.60;;
40122;SDS011;25832;45.490;4.912;2024-03-07T15:31:06;0.85;;;0.68;;
40122;SDS011;25832;45.490;4.912;2024-03-07T15:33:32;1.33;;;0.90;;
40122;SDS011;25832;45.490;4.912;2024-03-07T15:35:58;1.45;;;1.20;;
40122;SDS011;25832;45.490;4.912;2024-03-07T15:38:24;1.65;;;0.82;;
40122;SDS011;25832;45.490;4.912;2024-03-07T15:40:58;1.48;;;0.90;;
40122;SDS011;25832;45.490;4.912;2024-03-07T15:43:27;1.35;;;0.80;;
40122;SDS011;25832;45.490;4.912;2024-03-07T15:45:53;4.85;;;1.10;;